Time;durP1;ratioP1;P1;durP2;ratioP2;P2;SDS_P1;SDS_P2;PMS_P1;PMS_P2;Temp;Humidity;BMP_temperature;BMP_pressure;BME280_temperature;BME280_humidity;BME280_pressure;Samples;Min_cycle;Max_cycle;Signal;HPM_P1;HPM_P2
2023/12/31 00:00:44;;;;;;;27.20;9.20;;;;;;;;;;6133815;23;20466;-88
2023/12/31 00:03:28;;;;;;;941.60;100.55;;;;;;;;;;6134248;23;20027;-91
2023/12/31 00:06:12;;;;;;;285.05;34.25;;;;;;;;;;6133653;23;20044;-88
2023/12/31 00:08:56;;;;;;;18.00;7.85;;;;;;;;;;6133958;23;20017;-87
2023/12/31 00:11:39;;;;;;;83.63;17.63;;;;;;;;;;6133969;23;20505;-88
2023/12/31 00:14:26;;;;;;;18.20;8.60;;;;;;;;;;6133509;23;20458;-90
2023/12/31 00:17:10;;;;;;;14.77;7.85;;;;;;;;;;6133773;23;20052;-88
2023/12/31 00:19:54;;;;;;;19.85;8.30;;;;;;;;;;6132758;23;20470;-88
2023/12/31 00:22:38;;;;;;;22.05;9.50;;;;;;;;;;6133327;23;20513;-89
2023/12/31 00:25:22;;;;;;;30.63;10.15;;;;;;;;;;6133906;23;20100;-90
2023/12/31 00:28:07;;;;;;;12.30;6.55;;;;;;;;;;6133976;23;20025;-87
2023/12/31 00:30:51;;;;;;;83.47;17.05;;;;;;;;;;6134265;23;20020;-90
2023/12/31 00:33:35;;;;;;;48.60;11.25;;;;;;;;;;6134065;23;20086;-88
2023/12/31 00:36:19;;;;;;;24.92;8.40;;;;;;;;;;6134533;23;20056;-90
2023/12/31 00:39:02;;;;;;;15.45;7.15;;;;;;;;;;6133804;23;20067;-89
2023/12/31 00:42:02;;;;;;;19.10;8.50;;;;;;;;;;6133634;23;20035;-88
2023/12/31 00:44:46;;;;;;;23.23;8.23;;;;;;;;;;6132337;23;20095;-86
2023/12/31 00:47:30;;;;;;;17.30;7.25;;;;;;;;;;6155637;23;20024;-87
2023/12/31 00:50:14;;;;;;;30.63;8.15;;;;;;;;;;6134089;23;20036;-89
2023/12/31 00:52:58;;;;;;;33.47;8.35;;;;;;;;;;6132534;23;20025;-88
2023/12/31 00:55:43;;;;;;;26.20;8.00;;;;;;;;;;6133035;23;20098;-88
2023/12/31 00:58:27;;;;;;;37.28;9.05;;;;;;;;;;6132694;23;20336;-88
2023/12/31 01:01:11;;;;;;;41.58;8.18;;;;;;;;;;6133918;23;20020;-88
2023/12/31 01:03:55;;;;;;;15.23;7.68;;;;;;;;;;6132887;23;20024;-90
2023/12/31 01:06:39;;;;;;;17.88;7.85;;;;;;;;;;6154393;23;20036;-87
2023/12/31 01:09:22;;;;;;;15.13;7.78;;;;;;;;;;6133734;23;20470;-88
2023/12/31 01:12:06;;;;;;;18.23;8.45;;;;;;;;;;6132563;23;20021;-87
2023/12/31 01:14:50;;;;;;;27.50;9.45;;;;;;;;;;6131495;23;20024;-88
2023/12/31 01:17:34;;;;;;;89.72;15.13;;;;;;;;;;6132559;23;20526;-87
2023/12/31 01:20:20;;;;;;;24.92;9.32;;;;;;;;;;6132916;23;20021;-89
2023/12/31 01:23:05;;;;;;;16.98;7.95;;;;;;;;;;6132906;23;20036;-88
2023/12/31 01:25:49;;;;;;;15.93;7.40;;;;;;;;;;6132687;23;20092;-88
2023/12/31 01:28:32;;;;;;;19.33;7.72;;;;;;;;;;6132002;23;20021;-89
2023/12/31 01:31:17;;;;;;;25.02;7.28;;;;;;;;;;6132730;23;20044;-90
2023/12/31 01:34:01;;;;;;;14.05;6.78;;;;;;;;;;6133675;23;20072;-86
2023/12/31 01:36:45;;;;;;;42.92;8.32;;;;;;;;;;6133258;23;20386;-87
2023/12/31 01:39:29;;;;;;;31.27;7.68;;;;;;;;;;6156895;22;20025;-87
2023/12/31 01:42:15;;;;;;;12.45;6.47;;;;;;;;;;6134669;23;20016;-89
2023/12/31 01:44:59;;;;;;;13.10;6.80;;;;;;;;;;6135213;23;20089;-89
2023/12/31 01:47:43;;;;;;;10.82;5.97;;;;;;;;;;6135183;23;20024;-88
2023/12/31 01:50:30;;;;;;;23.95;7.72;;;;;;;;;;6135709;23;20457;-87
2023/12/31 01:53:14;;;;;;;16.10;6.57;;;;;;;;;;6135411;23;20059;-88
2023/12/31 01:55:58;;;;;;;10.60;5.85;;;;;;;;;;6134996;23;20024;-89
2023/12/31 01:58:43;;;;;;;12.80;6.43;;;;;;;;;;6134892;23;20024;-90
2023/12/31 02:01:27;;;;;;;11.52;6.32;;;;;;;;;;6135091;23;20027;-88
2023/12/31 02:04:11;;;;;;;13.38;6.28;;;;;;;;;;6134310;23;20138;-87
2023/12/31 02:06:54;;;;;;;40.90;8.15;;;;;;;;;;6156143;23;20024;-88
2023/12/31 02:09:38;;;;;;;10.55;5.50;;;;;;;;;;6133792;23;20454;-88
2023/12/31 02:12:22;;;;;;;11.65;5.75;;;;;;;;;;6134107;23;20021;-89
2023/12/31 02:15:07;;;;;;;13.70;5.78;;;;;;;;;;6134310;23;20066;-88
2023/12/31 02:17:51;;;;;;;24.85;7.35;;;;;;;;;;6133157;23;20025;-89
2023/12/31 02:20:35;;;;;;;32.10;8.88;;;;;;;;;;6155274;23;20032;-88
2023/12/31 02:23:19;;;;;;;18.63;6.68;;;;;;;;;;6154307;23;20082;-87
2023/12/31 02:26:07;;;;;;;10.18;6.20;;;;;;;;;;6132997;23;20479;-87
2023/12/31 02:28:51;;;;;;;16.27;6.63;;;;;;;;;;6134048;23;20029;-88
2023/12/31 02:31:35;;;;;;;36.63;9.38;;;;;;;;;;6133396;23;20024;-89
2023/12/31 02:34:19;;;;;;;26.70;8.32;;;;;;;;;;6133441;23;20344;-87
2023/12/31 02:37:03;;;;;;;17.70;8.25;;;;;;;;;;6132946;23;20021;-89
2023/12/31 02:39:47;;;;;;;28.65;10.90;;;;;;;;;;6154882;22;20029;-88
2023/12/31 02:42:31;;;;;;;26.65;10.55;;;;;;;;;;6132078;23;20017;-87
2023/12/31 02:45:15;;;;;;;32.63;13.38;;;;;;;;;;6133201;23;20025;-86
2023/12/31 02:47:59;;;;;;;40.33;15.75;;;;;;;;;;6134315;23;20063;-90
2023/12/31 02:50:43;;;;;;;45.08;16.15;;;;;;;;;;6134139;23;20460;-86
2023/12/31 02:53:27;;;;;;;39.78;15.48;;;;;;;;;;6132909;23;20024;-89
2023/12/31 02:56:11;;;;;;;43.97;14.95;;;;;;;;;;6133568;23;20471;-89
2023/12/31 02:58:55;;;;;;;33.38;11.30;;;;;;;;;;6132700;23;20021;-88
2023/12/31 03:01:39;;;;;;;34.47;11.27;;;;;;;;;;6132861;23;20017;-87
2023/12/31 03:04:23;;;;;;;39.22;10.05;;;;;;;;;;6132543;23;20016;-88
2023/12/31 03:07:07;;;;;;;17.10;8.07;;;;;;;;;;6131941;23;20017;-87
2023/12/31 03:09:51;;;;;;;52.00;10.73;;;;;;;;;;6131795;23;20020;-88
2023/12/31 03:12:35;;;;;;;21.20;8.75;;;;;;;;;;6131405;23;20313;-88
2023/12/31 03:15:19;;;;;;;21.85;8.00;;;;;;;;;;6131227;23;20035;-87
2023/12/31 03:18:04;;;;;;;22.80;9.55;;;;;;;;;;6131752;23;20021;-86
2023/12/31 03:20:48;;;;;;;26.70;9.40;;;;;;;;;;6131659;23;20024;-87
2023/12/31 03:23:32;;;;;;;18.20;8.13;;;;;;;;;;6131744;23;20060;-86
2023/12/31 03:26:16;;;;;;;18.23;7.85;;;;;;;;;;6131872;23;20336;-86
2023/12/31 03:28:59;;;;;;;40.75;12.95;;;;;;;;;;6153404;23;20039;-87
2023/12/31 03:31:43;;;;;;;43.67;14.93;;;;;;;;;;6131095;23;20343;-86
2023/12/31 03:34:27;;;;;;;57.35;14.45;;;;;;;;;;6153789;23;20028;-87
2023/12/31 03:37:11;;;;;;;25.05;10.75;;;;;;;;;;6152793;23;20063;-86
2023/12/31 03:39:55;;;;;;;28.63;10.65;;;;;;;;;;6131089;23;20033;-89
2023/12/31 03:42:39;;;;;;;19.80;9.95;;;;;;;;;;6131214;23;20017;-87
2023/12/31 03:45:23;;;;;;;25.52;10.38;;;;;;;;;;6130639;23;20016;-87
2023/12/31 03:48:07;;;;;;;31.00;10.70;;;;;;;;;;6150482;23;20021;-89
2023/12/31 03:50:51;;;;;;;27.20;10.25;;;;;;;;;;6130603;23;20067;-90
2023/12/31 03:53:35;;;;;;;23.33;11.55;;;;;;;;;;6130548;23;20083;-86
2023/12/31 03:56:18;;;;;;;30.25;11.82;;;;;;;;;;6130810;23;20020;-86
2023/12/31 03:59:02;;;;;;;46.15;13.63;;;;;;;;;;6130422;23;20064;-87
2023/12/31 04:01:46;;;;;;;47.50;14.23;;;;;;;;;;6130477;23;20027;-88
2023/12/31 04:04:30;;;;;;;29.73;12.82;;;;;;;;;;6152401;23;20066;-88
2023/12/31 04:07:14;;;;;;;47.25;14.35;;;;;;;;;;6130073;23;20079;-90
2023/12/31 04:09:58;;;;;;;32.97;12.73;;;;;;;;;;6130539;23;20017;-89
2023/12/31 04:12:42;;;;;;;43.05;14.05;;;;;;;;;;6152528;23;20016;-89
2023/12/31 04:15:26;;;;;;;30.33;13.55;;;;;;;;;;6130524;23;20477;-89
2023/12/31 04:18:10;;;;;;;32.67;13.57;;;;;;;;;;6130175;23;20024;-89
2023/12/31 04:20:54;;;;;;;37.92;13.68;;;;;;;;;;6130229;23;20343;-87
2023/12/31 04:23:37;;;;;;;40.05;13.30;;;;;;;;;;6130513;23;20021;-87
2023/12/31 04:26:22;;;;;;;33.83;14.20;;;;;;;;;;6152690;23;20037;-87
2023/12/31 04:29:06;;;;;;;35.20;14.52;;;;;;;;;;6152256;23;20021;-87
2023/12/31 04:31:49;;;;;;;54.90;14.95;;;;;;;;;;6130158;23;20023;-89
2023/12/31 04:34:33;;;;;;;39.33;13.88;;;;;;;;;;6129953;23;20023;-89
2023/12/31 04:37:17;;;;;;;33.65;11.93;;;;;;;;;;6151815;23;20438;-90
2023/12/31 04:40:02;;;;;;;35.70;13.30;;;;;;;;;;6129853;23;20055;-88
2023/12/31 04:42:46;;;;;;;30.50;12.63;;;;;;;;;;6129648;23;20082;-88
2023/12/31 04:45:29;;;;;;;42.58;13.85;;;;;;;;;;6129815;23;20016;-88
2023/12/31 04:48:13;;;;;;;27.65;12.88;;;;;;;;;;6130037;23;20070;-90
2023/12/31 04:50:57;;;;;;;29.10;12.63;;;;;;;;;;6129882;23;20501;-87
2023/12/31 04:53:41;;;;;;;30.02;12.18;;;;;;;;;;6152141;23;20020;-89
2023/12/31 04:56:25;;;;;;;35.58;13.80;;;;;;;;;;6129907;23;20067;-88
2023/12/31 04:59:10;;;;;;;31.08;12.88;;;;;;;;;;6151192;23;20068;-88
2023/12/31 05:01:55;;;;;;;79.07;20.25;;;;;;;;;;6129908;23;20019;-88
2023/12/31 05:04:42;;;;;;;47.63;14.35;;;;;;;;;;6129651;23;20108;-86
2023/12/31 05:07:25;;;;;;;26.95;11.63;;;;;;;;;;6130516;23;20020;-85
2023/12/31 05:10:10;;;;;;;39.47;14.70;;;;;;;;;;6153172;23;20462;-87
2023/12/31 05:12:54;;;;;;;25.30;11.57;;;;;;;;;;6152909;23;20044;-89
2023/12/31 05:15:37;;;;;;;34.40;12.88;;;;;;;;;;6130466;23;20473;-88
2023/12/31 05:18:21;;;;;;;31.38;12.32;;;;;;;;;;6152641;23;20497;-86
2023/12/31 05:21:05;;;;;;;24.77;12.32;;;;;;;;;;6130739;23;20059;-87
2023/12/31 05:23:49;;;;;;;37.67;12.77;;;;;;;;;;6130766;23;20017;-88
2023/12/31 05:26:33;;;;;;;32.85;12.82;;;;;;;;;;6152606;23;20058;-89
2023/12/31 05:29:17;;;;;;;27.67;11.82;;;;;;;;;;6152565;23;20379;-87
2023/12/31 05:32:01;;;;;;;31.95;11.93;;;;;;;;;;6130601;23;20027;-87
2023/12/31 05:34:45;;;;;;;29.00;11.98;;;;;;;;;;6130656;23;20023;-88
2023/12/31 05:37:29;;;;;;;26.55;11.35;;;;;;;;;;6152487;23;20462;-87
2023/12/31 05:40:13;;;;;;;30.73;12.77;;;;;;;;;;6130342;23;20027;-90
2023/12/31 05:42:57;;;;;;;31.65;12.73;;;;;;;;;;6152343;23;20017;-86
2023/12/31 05:45:41;;;;;;;34.72;13.27;;;;;;;;;;6130349;23;20389;-87
2023/12/31 05:48:25;;;;;;;35.63;14.48;;;;;;;;;;6152408;23;20352;-87
2023/12/31 05:51:09;;;;;;;37.05;12.38;;;;;;;;;;6130275;23;20028;-87
2023/12/31 05:53:53;;;;;;;29.60;13.95;;;;;;;;;;6152525;23;20021;-88
2023/12/31 05:56:37;;;;;;;29.27;12.38;;;;;;;;;;6152421;23;20101;-89
2023/12/31 05:59:21;;;;;;;31.95;13.30;;;;;;;;;;6152009;23;20072;-89
2023/12/31 06:02:04;;;;;;;28.20;12.50;;;;;;;;;;6130203;23;20021;-86
2023/12/31 06:04:48;;;;;;;31.75;13.27;;;;;;;;;;6129690;23;20059;-86
2023/12/31 06:07:32;;;;;;;39.08;13.80;;;;;;;;;;6151947;23;20394;-88
2023/12/31 06:10:16;;;;;;;33.58;13.10;;;;;;;;;;6130152;23;20097;-88
2023/12/31 06:13:01;;;;;;;32.35;12.57;;;;;;;;;;6151859;23;20029;-88
2023/12/31 06:15:45;;;;;;;36.75;12.88;;;;;;;;;;6151955;23;20344;-87
2023/12/31 06:18:29;;;;;;;41.15;13.38;;;;;;;;;;6129531;23;20071;-89
2023/12/31 06:21:13;;;;;;;35.00;12.45;;;;;;;;;;6129835;23;20332;-86
2023/12/31 06:23:57;;;;;;;28.92;12.77;;;;;;;;;;6129785;23;20028;-85
2023/12/31 06:26:41;;;;;;;40.03;13.55;;;;;;;;;;6129882;23;20020;-87
2023/12/31 06:29:25;;;;;;;36.15;13.43;;;;;;;;;;6129729;23;20383;-88
2023/12/31 06:32:09;;;;;;;30.52;12.90;;;;;;;;;;6129712;23;20356;-87
2023/12/31 06:34:53;;;;;;;31.40;12.70;;;;;;;;;;6129367;23;20025;-86
2023/12/31 06:37:37;;;;;;;44.05;14.30;;;;;;;;;;6129671;23;20067;-87
2023/12/31 06:40:21;;;;;;;32.03;11.68;;;;;;;;;;6129569;23;20094;-88
2023/12/31 06:43:05;;;;;;;29.35;12.07;;;;;;;;;;6129421;23;20023;-86
2023/12/31 06:45:48;;;;;;;29.15;13.07;;;;;;;;;;6151813;23;20021;-86
2023/12/31 06:48:33;;;;;;;39.25;13.27;;;;;;;;;;6151739;23;20509;-86
2023/12/31 06:51:16;;;;;;;37.28;12.55;;;;;;;;;;6151668;23;20025;-87
2023/12/31 06:54:00;;;;;;;26.92;11.07;;;;;;;;;;6151632;23;20101;-88
2023/12/31 06:56:44;;;;;;;39.47;13.68;;;;;;;;;;6129372;23;20089;-87
2023/12/31 06:59:28;;;;;;;29.88;12.23;;;;;;;;;;6129457;23;20020;-88
2023/12/31 07:02:13;;;;;;;33.95;13.07;;;;;;;;;;6129806;23;20021;-87
2023/12/31 07:04:57;;;;;;;32.92;13.68;;;;;;;;;;6151457;23;20063;-86
2023/12/31 07:07:41;;;;;;;46.50;14.27;;;;;;;;;;6129813;23;20020;-88
2023/12/31 07:10:25;;;;;;;31.27;13.05;;;;;;;;;;6129602;23;20063;-88
2023/12/31 07:13:09;;;;;;;35.20;13.10;;;;;;;;;;6151588;23;20466;-88
2023/12/31 07:15:56;;;;;;;32.70;12.13;;;;;;;;;;6129545;23;20021;-88
2023/12/31 07:18:41;;;;;;;30.90;10.90;;;;;;;;;;6129592;23;20024;-88
2023/12/31 07:21:25;;;;;;;22.85;10.70;;;;;;;;;;6129792;23;20097;-86
2023/12/31 07:24:09;;;;;;;31.13;11.30;;;;;;;;;;6129734;23;20028;-85
2023/12/31 07:26:53;;;;;;;28.98;9.77;;;;;;;;;;6130417;23;20458;-87
2023/12/31 07:29:37;;;;;;;28.63;10.68;;;;;;;;;;6151167;23;20059;-85
2023/12/31 07:32:22;;;;;;;24.50;11.05;;;;;;;;;;6129416;23;20356;-87
2023/12/31 07:35:06;;;;;;;21.95;10.13;;;;;;;;;;6129201;23;20020;-85
2023/12/31 07:37:50;;;;;;;26.38;9.52;;;;;;;;;;6151373;23;20028;-85
2023/12/31 07:40:34;;;;;;;21.58;8.70;;;;;;;;;;6151340;23;20101;-87
2023/12/31 07:43:18;;;;;;;18.48;8.60;;;;;;;;;;6129296;23;20059;-88
2023/12/31 07:46:02;;;;;;;28.05;10.98;;;;;;;;;;6129632;23;20459;-87
2023/12/31 07:48:46;;;;;;;23.40;9.65;;;;;;;;;;6129455;23;20023;-87
2023/12/31 07:51:30;;;;;;;26.08;10.30;;;;;;;;;;6129696;23;20025;-87
2023/12/31 07:54:14;;;;;;;22.17;8.63;;;;;;;;;;6129369;23;20020;-86
2023/12/31 07:56:58;;;;;;;22.30;7.53;;;;;;;;;;6129209;23;20017;-87
2023/12/31 07:59:43;;;;;;;14.50;6.63;;;;;;;;;;6130150;23;20020;-85
2023/12/31 08:02:27;;;;;;;14.52;7.25;;;;;;;;;;6129478;23;20016;-89
2023/12/31 08:05:11;;;;;;;23.30;7.65;;;;;;;;;;6129243;23;20101;-87
2023/12/31 08:07:55;;;;;;;18.48;8.13;;;;;;;;;;6129652;23;20044;-86
2023/12/31 08:10:40;;;;;;;21.25;9.30;;;;;;;;;;6151865;23;20067;-87
2023/12/31 08:13:25;;;;;;;15.80;7.78;;;;;;;;;;6151891;23;20068;-86
2023/12/31 08:16:09;;;;;;;25.02;8.63;;;;;;;;;;6129354;23;20068;-86
2023/12/31 08:18:53;;;;;;;22.73;9.80;;;;;;;;;;6129167;23;20020;-87
2023/12/31 08:21:37;;;;;;;19.05;9.43;;;;;;;;;;6129601;23;20067;-86
2023/12/31 08:24:21;;;;;;;15.02;8.20;;;;;;;;;;6129256;23;20071;-86
2023/12/31 08:27:05;;;;;;;16.85;7.38;;;;;;;;;;6129868;23;20039;-88
2023/12/31 08:29:50;;;;;;;13.90;7.32;;;;;;;;;;6151080;23;20468;-87
2023/12/31 08:32:35;;;;;;;13.38;6.72;;;;;;;;;;6151198;23;20071;-86
2023/12/31 08:35:19;;;;;;;14.20;6.75;;;;;;;;;;6129051;23;20395;-87
2023/12/31 08:38:03;;;;;;;20.15;6.40;;;;;;;;;;6129226;23;20024;-86
2023/12/31 08:40:47;;;;;;;17.83;6.47;;;;;;;;;;6129023;23;20140;-88
2023/12/31 08:43:31;;;;;;;16.13;7.30;;;;;;;;;;6151403;23;20033;-88
2023/12/31 08:46:15;;;;;;;16.83;8.32;;;;;;;;;;6129073;23;20025;-87
2023/12/31 08:48:59;;;;;;;21.02;8.38;;;;;;;;;;6129281;23;20036;-85
2023/12/31 08:51:43;;;;;;;18.17;7.80;;;;;;;;;;6129204;23;20351;-87
2023/12/31 08:54:27;;;;;;;22.50;8.35;;;;;;;;;;6129391;23;20048;-87
2023/12/31 08:57:11;;;;;;;17.48;7.90;;;;;;;;;;6129030;23;20519;-88
2023/12/31 08:59:55;;;;;;;26.92;10.10;;;;;;;;;;6151423;23;20109;-86
2023/12/31 09:02:39;;;;;;;16.55;9.23;;;;;;;;;;6129258;23;20056;-89
2023/12/31 09:05:23;;;;;;;22.50;10.73;;;;;;;;;;6127539;23;20067;-84
2023/12/31 09:08:07;;;;;;;16.75;7.85;;;;;;;;;;6128139;23;20096;-85
2023/12/31 09:10:54;;;;;;;22.90;8.88;;;;;;;;;;6149692;23;20025;-86
2023/12/31 09:13:38;;;;;;;26.42;10.10;;;;;;;;;;6149483;23;20498;-86
2023/12/31 09:16:22;;;;;;;28.10;9.50;;;;;;;;;;6128121;23;20020;-85
2023/12/31 09:19:06;;;;;;;31.38;9.43;;;;;;;;;;6149642;23;20079;-85
2023/12/31 09:21:49;;;;;;;23.63;9.40;;;;;;;;;;6127084;23;20045;-85
2023/12/31 09:24:35;;;;;;;19.20;7.55;;;;;;;;;;6149341;23;20017;-85
2023/12/31 09:27:19;;;;;;;27.63;9.95;;;;;;;;;;6148181;23;20017;-87
2023/12/31 09:30:03;;;;;;;32.10;9.38;;;;;;;;;;6126908;23;20008;-86
2023/12/31 09:32:47;;;;;;;32.03;8.80;;;;;;;;;;6148934;23;20063;-86
2023/12/31 09:35:31;;;;;;;28.13;8.98;;;;;;;;;;6126986;23;20025;-87
2023/12/31 09:38:18;;;;;;;23.90;8.32;;;;;;;;;;6149524;23;20021;-85
2023/12/31 09:41:04;;;;;;;24.95;7.20;;;;;;;;;;6129305;23;20081;-88
2023/12/31 09:43:50;;;;;;;25.60;7.90;;;;;;;;;;6127518;23;20048;-84
2023/12/31 09:46:37;;;;;;;23.25;7.45;;;;;;;;;;6128235;23;20019;-89
2023/12/31 09:49:21;;;;;;;26.08;7.20;;;;;;;;;;6148849;23;20357;-84
2023/12/31 09:52:08;;;;;;;18.40;6.82;;;;;;;;;;6126395;23;20029;-85
2023/12/31 09:54:53;;;;;;;23.83;7.53;;;;;;;;;;6149672;23;20397;-84
2023/12/31 09:57:43;;;;;;;23.35;6.82;;;;;;;;;;6127363;23;20021;-84
2023/12/31 10:00:27;;;;;;;25.48;7.20;;;;;;;;;;6127642;23;20063;-84
2023/12/31 10:03:13;;;;;;;16.05;5.55;;;;;;;;;;6149444;23;20017;-85
2023/12/31 10:05:58;;;;;;;21.08;5.85;;;;;;;;;;6126944;23;20032;-85
2023/12/31 10:08:54;;;;;;;17.50;5.95;;;;;;;;;;6127775;23;20025;-85
2023/12/31 10:11:42;;;;;;;19.27;5.65;;;;;;;;;;6127941;23;20344;-86
2023/12/31 10:14:26;;;;;;;17.63;5.57;;;;;;;;;;6128200;23;20462;-86
2023/12/31 10:17:13;;;;;;;27.92;7.28;;;;;;;;;;6128314;23;20021;-87
2023/12/31 10:20:03;;;;;;;61.22;31.83;;;;;;;;;;6127542;23;20021;-87
2023/12/31 10:22:47;;;;;;;29.80;15.88;;;;;;;;;;6127961;23;20093;-86
2023/12/31 10:25:31;;;;;;;34.03;14.13;;;;;;;;;;6127662;23;20064;-89
2023/12/31 10:28:17;;;;;;;32.65;10.15;;;;;;;;;;6128642;23;20029;-86
2023/12/31 10:31:03;;;;;;;32.83;15.05;;;;;;;;;;6128928;23;20044;-87
2023/12/31 10:33:54;;;;;;;24.13;10.15;;;;;;;;;;6150477;23;20051;-86
2023/12/31 10:36:38;;;;;;;22.02;6.93;;;;;;;;;;6128318;23;20083;-89
2023/12/31 10:39:29;;;;;;;23.35;7.97;;;;;;;;;;6128691;22;20028;-87
2023/12/31 10:42:13;;;;;;;24.92;8.02;;;;;;;;;;6128937;23;20032;-88
2023/12/31 10:44:57;;;;;;;28.25;10.68;;;;;;;;;;6128738;23;20023;-87
2023/12/31 10:47:43;;;;;;;37.75;9.57;;;;;;;;;;6151622;23;20112;-88
2023/12/31 10:50:27;;;;;;;24.13;7.20;;;;;;;;;;6151017;23;20344;-86
2023/12/31 10:53:12;;;;;;;27.38;7.40;;;;;;;;;;6128924;23;20021;-87
2023/12/31 10:55:56;;;;;;;27.02;6.93;;;;;;;;;;6156958;23;20725;-88
2023/12/31 10:58:40;;;;;;;24.73;7.22;;;;;;;;;;6150663;23;20021;-88
2023/12/31 11:01:25;;;;;;;46.83;11.95;;;;;;;;;;6128953;23;20454;-87
2023/12/31 11:04:12;;;;;;;29.95;8.45;;;;;;;;;;6127470;23;20086;-88
2023/12/31 11:06:56;;;;;;;21.70;5.72;;;;;;;;;;6150399;23;20020;-86
2023/12/31 11:09:41;;;;;;;22.85;6.45;;;;;;;;;;6129147;23;20066;-87
2023/12/31 11:12:25;;;;;;;14.15;4.55;;;;;;;;;;6150768;23;20090;-87
2023/12/31 11:15:15;;;;;;;21.17;5.85;;;;;;;;;;6128294;23;20348;-88
2023/12/31 11:18:17;;;;;;;19.27;6.28;;;;;;;;;;6128694;23;20024;-88
2023/12/31 11:21:06;;;;;;;20.98;6.15;;;;;;;;;;6128627;23;20336;-87
2023/12/31 11:24:10;;;;;;;19.60;5.15;;;;;;;;;;6150529;23;20036;-87
2023/12/31 11:27:06;;;;;;;26.83;7.78;;;;;;;;;;6128897;23;20051;-87
2023/12/31 11:29:52;;;;;;;23.50;7.10;;;;;;;;;;6128964;23;20025;-87
2023/12/31 11:32:36;;;;;;;22.20;7.75;;;;;;;;;;6128444;23;20028;-86
2023/12/31 11:35:39;;;;;;;18.65;7.75;;;;;;;;;;6128774;23;20028;-87
2023/12/31 11:38:25;;;;;;;32.92;11.00;;;;;;;;;;6128474;23;20463;-86
2023/12/31 11:41:09;;;;;;;25.98;6.97;;;;;;;;;;6128092;23;20025;-86
2023/12/31 11:43:54;;;;;;;32.53;12.63;;;;;;;;;;6127742;23;20063;-86
2023/12/31 11:46:38;;;;;;;23.48;6.63;;;;;;;;;;6128615;23;20043;-86
2023/12/31 11:49:48;;;;;;;24.70;7.90;;;;;;;;;;6132313;23;20039;-88
2023/12/31 11:52:37;;;;;;;22.88;6.20;;;;;;;;;;6134016;23;20096;-89
2023/12/31 11:55:21;;;;;;;19.42;6.25;;;;;;;;;;6133250;23;20021;-88
2023/12/31 11:58:05;;;;;;;26.25;7.38;;;;;;;;;;6134368;23;20363;-88
2023/12/31 12:00:53;;;;;;;21.35;6.50;;;;;;;;;;6136607;23;20021;-88
2023/12/31 12:03:38;;;;;;;26.55;6.78;;;;;;;;;;6136472;23;20043;-88
2023/12/31 12:06:29;;;;;;;20.25;7.55;;;;;;;;;;6134640;23;20450;-89
2023/12/31 12:09:13;;;;;;;21.92;6.35;;;;;;;;;;6133451;23;20074;-88
2023/12/31 12:12:01;;;;;;;37.13;10.60;;;;;;;;;;6135536;23;20071;-89
2023/12/31 12:14:45;;;;;;;25.45;7.43;;;;;;;;;;6154306;23;20588;-88
2023/12/31 12:17:30;;;;;;;20.75;6.20;;;;;;;;;;6135238;23;20024;-88
2023/12/31 12:20:14;;;;;;;16.98;5.32;;;;;;;;;;6133545;23;20016;-86
2023/12/31 12:23:03;;;;;;;26.08;7.50;;;;;;;;;;6158613;23;20021;-89
2023/12/31 12:25:48;;;;;;;21.35;5.63;;;;;;;;;;6130515;23;20017;-87
2023/12/31 12:28:31;;;;;;;34.85;9.23;;;;;;;;;;6129667;23;20071;-89
2023/12/31 12:31:17;;;;;;;36.10;10.20;;;;;;;;;;6129344;23;20024;-86
2023/12/31 12:34:07;;;;;;;19.58;5.03;;;;;;;;;;6132629;23;20071;-88
2023/12/31 12:36:53;;;;;;;18.23;4.88;;;;;;;;;;6128377;23;20350;-89
2023/12/31 12:43:15;;;;;;;27.92;8.43;;;;;;;;;;6265340;22;20345;-89
2023/12/31 12:53:25;;;;;;;13.48;5.03;;;;;;;;;;6181395;23;20163;-87
2023/12/31 12:56:09;;;;;;;23.55;5.55;;;;;;;;;;6169059;22;20399;-88
2023/12/31 12:58:53;;;;;;;20.70;6.50;;;;;;;;;;6255162;22;20018;-88
2023/12/31 13:01:37;;;;;;;16.15;6.53;;;;;;;;;;6253492;22;20097;-88
2023/12/31 13:04:21;;;;;;;20.45;7.55;;;;;;;;;;6253070;22;20476;-87
2023/12/31 13:07:08;;;;;;;23.05;8.57;;;;;;;;;;6254855;22;20398;-88
2023/12/31 13:09:52;;;;;;;17.42;7.28;;;;;;;;;;6253668;22;20073;-88
2023/12/31 13:12:36;;;;;;;21.35;7.70;;;;;;;;;;6254171;22;20096;-87
2023/12/31 13:15:23;;;;;;;20.92;8.95;;;;;;;;;;6252651;22;20019;-84
2023/12/31 13:18:08;;;;;;;13.23;6.45;;;;;;;;;;6251827;22;20066;-83
2023/12/31 13:20:54;;;;;;;11.70;5.97;;;;;;;;;;6251882;22;20034;-83
2023/12/31 13:23:38;;;;;;;14.45;5.13;;;;;;;;;;6252845;22;20018;-85
2023/12/31 13:26:22;;;;;;;14.32;5.30;;;;;;;;;;6252004;22;20441;-85
2023/12/31 13:29:05;;;;;;;11.73;5.05;;;;;;;;;;6252816;22;20018;-87
2023/12/31 13:31:50;;;;;;;15.18;5.50;;;;;;;;;;6254497;22;20070;-87
2023/12/31 13:34:33;;;;;;;15.25;3.85;;;;;;;;;;6254005;22;20023;-87
2023/12/31 13:37:17;;;;;;;6.75;3.17;;;;;;;;;;6254394;22;20403;-87
2023/12/31 13:43:43;;;;;;;8.35;3.10;;;;;;;;;;6153835;22;20101;-88
2023/12/31 13:46:27;;;;;;;7.28;3.60;;;;;;;;;;6133061;23;20028;-88
2023/12/31 13:49:11;;;;;;;6.38;2.97;;;;;;;;;;6154557;23;20055;-90
2023/12/31 13:51:55;;;;;;;11.57;3.85;;;;;;;;;;6129357;23;20025;-83
2023/12/31 13:54:39;;;;;;;9.90;3.60;;;;;;;;;;6128762;23;20115;-87
2023/12/31 13:57:23;;;;;;;14.73;7.00;;;;;;;;;;6129951;23;20064;-88
2023/12/31 14:00:08;;;;;;;8.07;3.50;;;;;;;;;;6130621;23;20082;-88
2023/12/31 14:02:52;;;;;;;10.25;4.70;;;;;;;;;;6131093;23;20089;-85
2023/12/31 14:05:35;;;;;;;12.85;3.80;;;;;;;;;;6130410;23;20052;-88
2023/12/31 14:08:19;;;;;;;13.65;4.78;;;;;;;;;;6129979;23;20040;-86
2023/12/31 14:11:03;;;;;;;19.70;6.90;;;;;;;;;;6129970;23;20036;-86
2023/12/31 14:13:48;;;;;;;12.45;5.93;;;;;;;;;;6130423;23;20391;-86
2023/12/31 14:16:31;;;;;;;12.95;6.15;;;;;;;;;;6130221;23;20072;-87
2023/12/31 14:19:16;;;;;;;23.67;9.52;;;;;;;;;;6130474;23;20072;-86
2023/12/31 14:21:59;;;;;;;16.38;7.45;;;;;;;;;;6130134;23;20017;-87
2023/12/31 14:24:43;;;;;;;16.15;6.07;;;;;;;;;;6152354;23;20060;-88
2023/12/31 14:27:27;;;;;;;17.33;6.60;;;;;;;;;;6130018;23;20021;-85
2023/12/31 14:30:12;;;;;;;21.33;6.85;;;;;;;;;;6152222;23;20021;-87
2023/12/31 14:32:56;;;;;;;18.15;6.95;;;;;;;;;;6152424;23;20067;-87
2023/12/31 14:35:40;;;;;;;17.88;7.43;;;;;;;;;;6130313;23;20467;-85
2023/12/31 14:38:24;;;;;;;14.70;5.80;;;;;;;;;;6129971;23;20175;-87
2023/12/31 14:41:08;;;;;;;29.50;9.65;;;;;;;;;;6130000;23;20088;-86
2023/12/31 14:43:52;;;;;;;14.57;5.60;;;;;;;;;;6130352;23;20020;-86
2023/12/31 14:46:36;;;;;;;16.58;7.38;;;;;;;;;;6130206;23;20020;-85
2023/12/31 14:49:20;;;;;;;18.30;6.22;;;;;;;;;;6129572;23;20063;-87
2023/12/31 14:52:04;;;;;;;16.00;4.72;;;;;;;;;;6129721;23;20078;-87
2023/12/31 14:54:48;;;;;;;10.55;4.00;;;;;;;;;;6130221;23;20021;-86
2023/12/31 14:57:33;;;;;;;12.18;4.07;;;;;;;;;;6129434;23;20060;-89
2023/12/31 15:00:17;;;;;;;10.52;3.17;;;;;;;;;;6129634;23;20066;-88
2023/12/31 15:03:02;;;;;;;11.57;3.42;;;;;;;;;;6129513;23;20048;-85
2023/12/31 15:05:46;;;;;;;7.18;3.50;;;;;;;;;;6151188;23;20040;-87
2023/12/31 15:08:30;;;;;;;8.05;3.42;;;;;;;;;;6129292;23;20088;-86
2023/12/31 15:11:14;;;;;;;7.57;3.08;;;;;;;;;;6151216;23;20572;-88
2023/12/31 15:13:58;;;;;;;10.85;2.97;;;;;;;;;;6150777;23;20140;-86
2023/12/31 15:16:41;;;;;;;7.90;3.22;;;;;;;;;;6129104;23;20063;-85
2023/12/31 15:19:26;;;;;;;10.15;4.03;;;;;;;;;;6129308;23;20024;-87
2023/12/31 15:22:09;;;;;;;15.70;6.20;;;;;;;;;;6129633;23;20064;-90
2023/12/31 15:24:53;;;;;;;9.43;3.60;;;;;;;;;;6129847;23;20016;-89
2023/12/31 15:27:37;;;;;;;9.50;3.58;;;;;;;;;;6130457;23;20048;-87
2023/12/31 15:30:21;;;;;;;10.38;2.83;;;;;;;;;;6131477;23;20063;-88
2023/12/31 15:33:05;;;;;;;8.93;3.10;;;;;;;;;;6131736;23;20031;-89
2023/12/31 15:35:51;;;;;;;10.00;2.85;;;;;;;;;;6131158;23;20040;-90
2023/12/31 15:38:38;;;;;;;7.63;2.67;;;;;;;;;;6129674;23;20024;-89
2023/12/31 15:41:22;;;;;;;9.73;2.38;;;;;;;;;;6129597;23;20020;-87
2023/12/31 15:44:06;;;;;;;8.68;2.97;;;;;;;;;;6129420;23;20029;-87
2023/12/31 15:46:50;;;;;;;5.70;2.80;;;;;;;;;;6129719;23;20066;-88
2023/12/31 15:49:35;;;;;;;13.02;5.45;;;;;;;;;;6129693;23;20020;-90
2023/12/31 15:52:19;;;;;;;11.45;3.13;;;;;;;;;;6129991;23;20040;-87
2023/12/31 15:55:05;;;;;;;7.90;3.17;;;;;;;;;;6129463;23;20066;-89
2023/12/31 15:57:51;;;;;;;7.22;3.17;;;;;;;;;;6150622;23;20043;-88
2023/12/31 16:00:35;;;;;;;9.52;3.22;;;;;;;;;;6129035;23;20024;-88
2023/12/31 16:03:22;;;;;;;12.18;2.90;;;;;;;;;;6128336;23;20939;-87
2023/12/31 16:06:06;;;;;;;6.40;3.28;;;;;;;;;;6128646;23;20021;-89
2023/12/31 16:12:01;;;;;;;8.90;3.00;;;;;;;;;;6149866;23;20110;-88
2023/12/31 16:14:45;;;;;;;8.50;3.33;;;;;;;;;;6127737;23;20101;-87
2023/12/31 16:17:29;;;;;;;6.05;3.05;;;;;;;;;;6151000;23;20398;-89
2023/12/31 16:20:13;;;;;;;9.57;3.40;;;;;;;;;;6128412;23;20023;-87
2023/12/31 16:22:57;;;;;;;14.00;4.25;;;;;;;;;;6128224;23;20094;-86
2023/12/31 16:25:40;;;;;;;8.02;3.78;;;;;;;;;;6128462;23;20024;-88